sensor_id;sensor_type;location;lat;lon;timestamp;P1;durP1;ratioP1;P2;durP2;ratioP2
6031;SDS011;3044;43.232;27.972;2023-04-24T00:01:44;8.37;;;5.20;;
6031;SDS011;3044;43.232;27.972;2023-04-24T00:04:12;13.30;;;5.63;;
6031;SDS011;3044;43.232;27.972;2023-04-24T00:06:42;15.13;;;5.30;;
6031;SDS011;3044;43.232;27.972;2023-04-24T00:09:14;17.70;;;5.87;;
6031;SDS011;3044;43.232;27.972;2023-04-24T00:11:42;11.63;;;5.73;;
6031;SDS011;3044;43.232;27.972;2023-04-24T00:14:09;23.03;;;6.30;;
6031;SDS011;3044;43.232;27.972;2023-04-24T00:16:36;10.80;;;5.20;;
6031;SDS011;3044;43.232;27.972;2023-04-24T00:19:03;10.40;;;5.00;;
6031;SDS011;3044;43.232;27.972;2023-04-24T00:21:31;16.13;;;6.00;;
6031;SDS011;3044;43.232;27.972;2023-04-24T00:24:00;8.50;;;5.27;;
6031;SDS011;3044;43.232;27.972;2023-04-24T00:26:27;8.50;;;5.10;;
6031;SDS011;3044;43.232;27.972;2023-04-24T00:28:54;8.82;;;5.15;;
6031;SDS011;3044;43.232;27.972;2023-04-24T00:31:21;10.70;;;5.30;;
6031;SDS011;3044;43.232;27.972;2023-04-24T00:33:48;10.65;;;5.95;;
6031;SDS011;3044;43.232;27.972;2023-04-24T00:36:15;7.70;;;5.10;;
6031;SDS011;3044;43.232;27.972;2023-04-24T00:38:44;10.97;;;5.50;;
6031;SDS011;3044;43.232;27.972;2023-04-24T00:41:13;5.33;;;4.73;;
6031;SDS011;3044;43.232;27.972;2023-04-24T00:43:40;19.57;;;5.40;;
6031;SDS011;3044;43.232;27.972;2023-04-24T00:46:07;8.57;;;5.20;;
6031;SDS011;3044;43.232;27.972;2023-04-24T00:48:35;8.40;;;5.07;;
6031;SDS011;3044;43.232;27.972;2023-04-24T00:51:05;6.70;;;5.40;;
6031;SDS011;3044;43.232;27.972;2023-04-24T00:53:32;19.80;;;6.65;;
6031;SDS011;3044;43.232;27.972;2023-04-24T00:55:59;10.53;;;4.93;;
6031;SDS011;3044;43.232;27.972;2023-04-24T00:58:29;11.95;;;5.53;;
6031;SDS011;3044;43.232;27.972;2023-04-24T01:00:56;17.83;;;6.03;;
6031;SDS011;3044;43.232;27.972;2023-04-24T01:03:26;9.63;;;5.37;;
6031;SDS011;3044;43.232;27.972;2023-04-24T01:05:56;13.50;;;4.80;;
6031;SDS011;3044;43.232;27.972;2023-04-24T01:08:24;7.40;;;5.17;;
6031;SDS011;3044;43.232;27.972;2023-04-24T01:10:54;5.90;;;5.40;;
6031;SDS011;3044;43.232;27.972;2023-04-24T01:13:23;13.00;;;6.83;;
6031;SDS011;3044;43.232;27.972;2023-04-24T01:15:52;10.17;;;5.40;;
6031;SDS011;3044;43.232;27.972;2023-04-24T01:18:19;8.70;;;5.40;;
6031;SDS011;3044;43.232;27.972;2023-04-24T01:20:47;15.57;;;6.67;;
6031;SDS011;3044;43.232;27.972;2023-04-24T01:23:18;8.63;;;6.70;;
6031;SDS011;3044;43.232;27.972;2023-04-24T01:25:45;13.33;;;5.63;;
6031;SDS011;3044;43.232;27.972;2023-04-24T01:28:13;12.57;;;5.90;;
6031;SDS011;3044;43.232;27.972;2023-04-24T01:30:40;9.63;;;5.50;;
6031;SDS011;3044;43.232;27.972;2023-04-24T01:33:08;10.73;;;4.80;;
6031;SDS011;3044;43.232;27.972;2023-04-24T01:35:35;10.20;;;5.07;;
6031;SDS011;3044;43.232;27.972;2023-04-24T01:38:02;13.07;;;4.77;;
6031;SDS011;3044;43.232;27.972;2023-04-24T01:40:32;13.17;;;5.13;;
6031;SDS011;3044;43.232;27.972;2023-04-24T01:42:59;11.00;;;5.07;;
6031;SDS011;3044;43.232;27.972;2023-04-24T01:45:26;5.50;;;4.60;;
6031;SDS011;3044;43.232;27.972;2023-04-24T01:47:53;5.00;;;4.57;;
6031;SDS011;3044;43.232;27.972;2023-04-24T01:50:21;9.80;;;4.20;;
6031;SDS011;3044;43.232;27.972;2023-04-24T01:52:48;13.10;;;4.87;;
6031;SDS011;3044;43.232;27.972;2023-04-24T01:55:15;15.97;;;5.33;;
6031;SDS011;3044;43.232;27.972;2023-04-24T01:57:44;14.10;;;5.73;;
6031;SDS011;3044;43.232;27.972;2023-04-24T02:00:11;6.63;;;4.90;;
6031;SDS011;3044;43.232;27.972;2023-04-24T02:02:38;7.43;;;4.83;;
6031;SDS011;3044;43.232;27.972;2023-04-24T02:05:06;18.43;;;6.00;;
6031;SDS011;3044;43.232;27.972;2023-04-24T02:07:34;11.80;;;4.77;;
6031;SDS011;3044;43.232;27.972;2023-04-24T02:10:02;9.63;;;5.43;;
6031;SDS011;3044;43.232;27.972;2023-04-24T02:12:30;13.30;;;5.05;;
6031;SDS011;3044;43.232;27.972;2023-04-24T02:14:58;11.37;;;5.30;;
6031;SDS011;3044;43.232;27.972;2023-04-24T02:17:26;9.63;;;4.57;;
6031;SDS011;3044;43.232;27.972;2023-04-24T02:19:53;15.40;;;4.67;;
6031;SDS011;3044;43.232;27.972;2023-04-24T02:22:20;10.83;;;5.27;;
6031;SDS011;3044;43.232;27.972;2023-04-24T02:24:47;9.30;;;5.13;;
6031;SDS011;3044;43.232;27.972;2023-04-24T02:27:15;11.30;;;5.97;;
6031;SDS011;3044;43.232;27.972;2023-04-24T02:29:42;14.30;;;5.20;;
6031;SDS011;3044;43.232;27.972;2023-04-24T02:32:10;11.30;;;5.80;;
6031;SDS011;3044;43.232;27.972;2023-04-24T02:34:37;8.48;;;5.50;;
6031;SDS011;3044;43.232;27.972;2023-04-24T02:37:04;7.10;;;5.10;;
6031;SDS011;3044;43.232;27.972;2023-04-24T02:39:32;6.40;;;4.70;;
6031;SDS011;3044;43.232;27.972;2023-04-24T02:41:59;16.07;;;5.10;;
6031;SDS011;3044;43.232;27.972;2023-04-24T02:44:26;8.97;;;4.73;;
6031;SDS011;3044;43.232;27.972;2023-04-24T02:46:53;9.80;;;5.70;;
6031;SDS011;3044;43.232;27.972;2023-04-24T02:49:22;8.50;;;5.20;;
6031;SDS011;3044;43.232;27.972;2023-04-24T02:51:49;13.40;;;4.70;;
6031;SDS011;3044;43.232;27.972;2023-04-24T02:54:16;14.73;;;5.10;;
6031;SDS011;3044;43.232;27.972;2023-04-24T02:56:43;9.83;;;5.50;;
6031;SDS011;3044;43.232;27.972;2023-04-24T02:59:10;13.67;;;5.33;;
6031;SDS011;3044;43.232;27.972;2023-04-24T03:01:37;13.50;;;4.82;;
6031;SDS011;3044;43.232;27.972;2023-04-24T03:04:05;8.97;;;5.10;;
6031;SDS011;3044;43.232;27.972;2023-04-24T03:06:33;11.03;;;4.63;;
6031;SDS011;3044;43.232;27.972;2023-04-24T03:09:00;10.93;;;4.83;;
6031;SDS011;3044;43.232;27.972;2023-04-24T03:11:28;9.90;;;5.40;;
6031;SDS011;3044;43.232;27.972;2023-04-24T03:13:55;14.83;;;5.27;;
6031;SDS011;3044;43.232;27.972;2023-04-24T03:16:22;21.27;;;5.40;;
6031;SDS011;3044;43.232;27.972;2023-04-24T03:18:49;11.97;;;6.30;;
6031;SDS011;3044;43.232;27.972;2023-04-24T03:21:17;16.10;;;6.20;;
6031;SDS011;3044;43.232;27.972;2023-04-24T03:23:45;20.90;;;6.07;;
6031;SDS011;3044;43.232;27.972;2023-04-24T03:26:12;16.63;;;6.40;;
6031;SDS011;3044;43.232;27.972;2023-04-24T03:28:40;11.50;;;5.23;;
6031;SDS011;3044;43.232;27.972;2023-04-24T03:31:07;7.87;;;5.80;;
6031;SDS011;3044;43.232;27.972;2023-04-24T03:33:34;11.33;;;5.73;;
6031;SDS011;3044;43.232;27.972;2023-04-24T03:36:01;14.37;;;6.70;;
6031;SDS011;3044;43.232;27.972;2023-04-24T03:38:28;7.93;;;4.83;;
6031;SDS011;3044;43.232;27.972;2023-04-24T03:40:56;21.43;;;4.90;;
6031;SDS011;3044;43.232;27.972;2023-04-24T03:43:23;11.03;;;6.73;;
6031;SDS011;3044;43.232;27.972;2023-04-24T03:45:52;13.23;;;5.10;;
6031;SDS011;3044;43.232;27.972;2023-04-24T03:48:19;11.13;;;6.43;;
6031;SDS011;3044;43.232;27.972;2023-04-24T03:50:46;8.93;;;5.60;;
6031;SDS011;3044;43.232;27.972;2023-04-24T03:53:13;10.70;;;5.60;;
6031;SDS011;3044;43.232;27.972;2023-04-24T03:55:40;7.80;;;5.53;;
6031;SDS011;3044;43.232;27.972;2023-04-24T03:58:09;19.70;;;5.55;;
6031;SDS011;3044;43.232;27.972;2023-04-24T04:00:38;9.03;;;5.93;;
6031;SDS011;3044;43.232;27.972;2023-04-24T04:03:06;8.40;;;5.40;;
6031;SDS011;3044;43.232;27.972;2023-04-24T04:05:33;14.70;;;5.25;;
6031;SDS011;3044;43.232;27.972;2023-04-24T04:08:00;20.53;;;5.03;;
6031;SDS011;3044;43.232;27.972;2023-04-24T04:10:27;7.53;;;4.77;;
6031;SDS011;3044;43.232;27.972;2023-04-24T04:12:54;8.80;;;4.93;;
6031;SDS011;3044;43.232;27.972;2023-04-24T04:15:23;12.52;;;5.50;;
6031;SDS011;3044;43.232;27.972;2023-04-24T04:17:50;12.53;;;4.23;;
6031;SDS011;3044;43.232;27.972;2023-04-24T04:20:17;16.97;;;5.73;;
6031;SDS011;3044;43.232;27.972;2023-04-24T04:22:44;9.13;;;4.50;;
6031;SDS011;3044;43.232;27.972;2023-04-24T04:25:11;11.60;;;4.67;;
6031;SDS011;3044;43.232;27.972;2023-04-24T04:27:39;7.73;;;5.07;;
6031;SDS011;3044;43.232;27.972;2023-04-24T04:30:07;9.80;;;4.80;;
6031;SDS011;3044;43.232;27.972;2023-04-24T04:32:36;9.13;;;5.30;;
6031;SDS011;3044;43.232;27.972;2023-04-24T04:35:03;10.23;;;4.43;;
6031;SDS011;3044;43.232;27.972;2023-04-24T04:37:31;7.60;;;4.77;;
6031;SDS011;3044;43.232;27.972;2023-04-24T04:39:59;11.73;;;5.03;;
6031;SDS011;3044;43.232;27.972;2023-04-24T04:42:31;6.37;;;4.27;;
6031;SDS011;3044;43.232;27.972;2023-04-24T04:44:59;18.07;;;5.30;;
6031;SDS011;3044;43.232;27.972;2023-04-24T04:47:27;7.20;;;4.40;;
6031;SDS011;3044;43.232;27.972;2023-04-24T04:49:58;16.03;;;4.70;;
6031;SDS011;3044;43.232;27.972;2023-04-24T04:52:25;12.20;;;4.37;;
6031;SDS011;3044;43.232;27.972;2023-04-24T04:54:52;11.10;;;4.37;;
6031;SDS011;3044;43.232;27.972;2023-04-24T04:57:19;9.73;;;5.30;;
6031;SDS011;3044;43.232;27.972;2023-04-24T04:59:46;6.70;;;3.93;;
6031;SDS011;3044;43.232;27.972;2023-04-24T05:02:14;10.65;;;4.13;;
6031;SDS011;3044;43.232;27.972;2023-04-24T05:04:41;10.70;;;4.20;;
6031;SDS011;3044;43.232;27.972;2023-04-24T05:07:09;5.85;;;4.55;;
6031;SDS011;3044;43.232;27.972;2023-04-24T05:09:36;15.37;;;5.03;;
6031;SDS011;3044;43.232;27.972;2023-04-24T05:12:04;7.15;;;3.85;;
6031;SDS011;3044;43.232;27.972;2023-04-24T05:14:31;9.63;;;3.93;;
6031;SDS011;3044;43.232;27.972;2023-04-24T05:16:58;11.17;;;4.47;;
6031;SDS011;3044;43.232;27.972;2023-04-24T05:19:25;6.07;;;4.43;;
6031;SDS011;3044;43.232;27.972;2023-04-24T05:21:52;17.00;;;4.70;;
6031;SDS011;3044;43.232;27.972;2023-04-24T05:24:21;16.00;;;5.53;;
6031;SDS011;3044;43.232;27.972;2023-04-24T05:26:48;14.88;;;4.43;;
6031;SDS011;3044;43.232;27.972;2023-04-24T05:29:15;14.40;;;4.20;;
6031;SDS011;3044;43.232;27.972;2023-04-24T05:31:44;8.07;;;4.00;;
6031;SDS011;3044;43.232;27.972;2023-04-24T05:34:11;8.47;;;3.63;;
6031;SDS011;3044;43.232;27.972;2023-04-24T05:36:39;7.30;;;4.70;;
6031;SDS011;3044;43.232;27.972;2023-04-24T05:39:06;13.45;;;3.40;;
6031;SDS011;3044;43.232;27.972;2023-04-24T05:41:35;14.60;;;4.63;;
6031;SDS011;3044;43.232;27.972;2023-04-24T05:44:02;22.53;;;4.37;;
6031;SDS011;3044;43.232;27.972;2023-04-24T05:46:29;8.83;;;4.00;;
6031;SDS011;3044;43.232;27.972;2023-04-24T05:48:56;9.53;;;3.60;;
6031;SDS011;3044;43.232;27.972;2023-04-24T05:51:23;10.75;;;4.18;;
6031;SDS011;3044;43.232;27.972;2023-04-24T05:53:51;7.23;;;3.50;;
6031;SDS011;3044;43.232;27.972;2023-04-24T05:56:18;10.53;;;4.07;;
6031;SDS011;3044;43.232;27.972;2023-04-24T05:58:47;15.40;;;4.47;;
6031;SDS011;3044;43.232;27.972;2023-04-24T06:01:14;9.57;;;3.90;;
6031;SDS011;3044;43.232;27.972;2023-04-24T06:03:41;7.73;;;4.17;;
6031;SDS011;3044;43.232;27.972;2023-04-24T06:06:08;8.03;;;3.77;;
6031;SDS011;3044;43.232;27.972;2023-04-24T06:08:35;6.67;;;3.67;;
6031;SDS011;3044;43.232;27.972;2023-04-24T06:11:02;13.43;;;3.60;;
6031;SDS011;3044;43.232;27.972;2023-04-24T06:13:29;14.00;;;4.40;;
6031;SDS011;3044;43.232;27.972;2023-04-24T06:15:58;12.85;;;4.15;;
6031;SDS011;3044;43.232;27.972;2023-04-24T06:18:25;7.13;;;3.90;;
6031;SDS011;3044;43.232;27.972;2023-04-24T06:20:52;5.18;;;3.55;;
6031;SDS011;3044;43.232;27.972;2023-04-24T06:23:20;24.63;;;5.33;;
6031;SDS011;3044;43.232;27.972;2023-04-24T06:25:47;9.10;;;3.40;;
6031;SDS011;3044;43.232;27.972;2023-04-24T06:28:15;15.30;;;3.80;;
6031;SDS011;3044;43.232;27.972;2023-04-24T06:30:42;7.80;;;4.55;;
6031;SDS011;3044;43.232;27.972;2023-04-24T06:33:11;10.65;;;4.20;;
6031;SDS011;3044;43.232;27.972;2023-04-24T06:35:38;8.10;;;4.57;;
6031;SDS011;3044;43.232;27.972;2023-04-24T06:38:05;12.03;;;4.80;;
6031;SDS011;3044;43.232;27.972;2023-04-24T06:40:32;8.43;;;3.83;;
6031;SDS011;3044;43.232;27.972;2023-04-24T06:42:59;21.67;;;3.27;;
6031;SDS011;3044;43.232;27.972;2023-04-24T06:45:28;5.33;;;3.73;;
6031;SDS011;3044;43.232;27.972;2023-04-24T06:47:55;16.10;;;4.20;;
6031;SDS011;3044;43.232;27.972;2023-04-24T06:50:23;21.23;;;4.27;;
6031;SDS011;3044;43.232;27.972;2023-04-24T06:52:51;9.80;;;4.07;;
6031;SDS011;3044;43.232;27.972;2023-04-24T06:55:18;15.13;;;3.87;;
6031;SDS011;3044;43.232;27.972;2023-04-24T06:57:45;17.90;;;4.03;;
6031;SDS011;3044;43.232;27.972;2023-04-24T07:00:12;9.33;;;3.57;;
6031;SDS011;3044;43.232;27.972;2023-04-24T07:02:40;8.30;;;3.50;;
6031;SDS011;3044;43.232;27.972;2023-04-24T07:05:07;10.17;;;4.47;;
6031;SDS011;3044;43.232;27.972;2023-04-24T07:07:36;7.53;;;4.20;;
6031;SDS011;3044;43.232;27.972;2023-04-24T07:10:05;13.43;;;3.80;;
6031;SDS011;3044;43.232;27.972;2023-04-24T07:12:33;7.30;;;3.63;;
6031;SDS011;3044;43.232;27.972;2023-04-24T07:15:00;10.40;;;4.43;;
6031;SDS011;3044;43.232;27.972;2023-04-24T07:17:28;7.57;;;4.30;;
6031;SDS011;3044;43.232;27.972;2023-04-24T07:19:55;19.97;;;4.50;;
6031;SDS011;3044;43.232;27.972;2023-04-24T07:22:22;15.32;;;4.07;;
6031;SDS011;3044;43.232;27.972;2023-04-24T07:24:51;11.25;;;3.95;;
6031;SDS011;3044;43.232;27.972;2023-04-24T07:27:18;17.00;;;5.00;;
6031;SDS011;3044;43.232;27.972;2023-04-24T07:29:45;7.83;;;4.90;;
6031;SDS011;3044;43.232;27.972;2023-04-24T07:32:12;7.53;;;4.00;;
6031;SDS011;3044;43.232;27.972;2023-04-24T07:34:39;14.27;;;4.68;;
6031;SDS011;3044;43.232;27.972;2023-04-24T07:37:07;12.13;;;4.53;;
6031;SDS011;3044;43.232;27.972;2023-04-24T07:39:34;9.97;;;4.23;;
6031;SDS011;3044;43.232;27.972;2023-04-24T07:42:02;13.23;;;5.40;;
6031;SDS011;3044;43.232;27.972;2023-04-24T07:44:29;9.98;;;4.53;;
6031;SDS011;3044;43.232;27.972;2023-04-24T07:46:57;14.18;;;4.65;;
6031;SDS011;3044;43.232;27.972;2023-04-24T07:49:24;6.87;;;3.93;;
6031;SDS011;3044;43.232;27.972;2023-04-24T07:51:53;6.53;;;3.97;;
6031;SDS011;3044;43.232;27.972;2023-04-24T07:54:20;11.60;;;4.70;;
6031;SDS011;3044;43.232;27.972;2023-04-24T07:56:47;5.63;;;4.00;;
6031;SDS011;3044;43.232;27.972;2023-04-24T07:59:16;10.77;;;5.40;;
6031;SDS011;3044;43.232;27.972;2023-04-24T08:01:43;6.93;;;3.83;;
6031;SDS011;3044;43.232;27.972;2023-04-24T08:04:10;7.23;;;3.90;;
6031;SDS011;3044;43.232;27.972;2023-04-24T08:06:37;9.50;;;4.73;;
6031;SDS011;3044;43.232;27.972;2023-04-24T08:09:05;6.60;;;4.37;;
6031;SDS011;3044;43.232;27.972;2023-04-24T08:11:32;17.43;;;4.90;;
6031;SDS011;3044;43.232;27.972;2023-04-24T08:13:59;6.93;;;3.65;;
6031;SDS011;3044;43.232;27.972;2023-04-24T08:16:27;13.30;;;4.33;;
6031;SDS011;3044;43.232;27.972;2023-04-24T08:18:54;10.53;;;4.00;;
6031;SDS011;3044;43.232;27.972;2023-04-24T08:21:22;6.93;;;4.60;;
6031;SDS011;3044;43.232;27.972;2023-04-24T08:23:49;9.90;;;5.03;;
6031;SDS011;3044;43.232;27.972;2023-04-24T08:26:16;11.17;;;4.07;;
6031;SDS011;3044;43.232;27.972;2023-04-24T08:28:44;13.10;;;4.28;;
6031;SDS011;3044;43.232;27.972;2023-04-24T08:31:11;19.53;;;5.13;;
6031;SDS011;3044;43.232;27.972;2023-04-24T08:33:39;14.17;;;4.53;;
6031;SDS011;3044;43.232;27.972;2023-04-24T08:36:07;6.13;;;4.67;;
6031;SDS011;3044;43.232;27.972;2023-04-24T08:38:34;7.10;;;4.30;;
6031;SDS011;3044;43.232;27.972;2023-04-24T08:41:02;11.45;;;4.45;;
6031;SDS011;3044;43.232;27.972;2023-04-24T08:43:30;14.30;;;4.80;;
6031;SDS011;3044;43.232;27.972;2023-04-24T08:45:59;6.38;;;4.25;;
6031;SDS011;3044;43.232;27.972;2023-04-24T08:48:27;8.90;;;4.40;;
6031;SDS011;3044;43.232;27.972;2023-04-24T08:50:56;8.63;;;4.97;;
6031;SDS011;3044;43.232;27.972;2023-04-24T08:53:23;12.75;;;4.95;;
6031;SDS011;3044;43.232;27.972;2023-04-24T08:55:51;12.53;;;4.50;;
6031;SDS011;3044;43.232;27.972;2023-04-24T08:58:21;8.20;;;4.53;;
6031;SDS011;3044;43.232;27.972;2023-04-24T09:00:49;8.50;;;4.23;;
6031;SDS011;3044;43.232;27.972;2023-04-24T09:03:16;12.83;;;4.93;;
6031;SDS011;3044;43.232;27.972;2023-04-24T09:05:44;11.90;;;4.87;;
6031;SDS011;3044;43.232;27.972;2023-04-24T09:08:16;13.93;;;4.72;;
6031;SDS011;3044;43.232;27.972;2023-04-24T09:10:45;13.93;;;4.00;;
6031;SDS011;3044;43.232;27.972;2023-04-24T09:13:13;8.60;;;4.77;;
6031;SDS011;3044;43.232;27.972;2023-04-24T09:15:41;9.23;;;4.67;;
6031;SDS011;3044;43.232;27.972;2023-04-24T09:18:08;12.83;;;4.20;;
6031;SDS011;3044;43.232;27.972;2023-04-24T09:20:50;30.23;;;4.95;;
6031;SDS011;3044;43.232;27.972;2023-04-24T09:23:26;13.27;;;4.50;;
6031;SDS011;3044;43.232;27.972;2023-04-24T09:25:55;14.40;;;4.63;;
6031;SDS011;3044;43.232;27.972;2023-04-24T09:28:25;10.30;;;4.67;;
6031;SDS011;3044;43.232;27.972;2023-04-24T09:31:03;13.60;;;4.50;;
6031;SDS011;3044;43.232;27.972;2023-04-24T09:33:34;7.27;;;3.93;;
6031;SDS011;3044;43.232;27.972;2023-04-24T09:36:01;8.30;;;4.33;;
6031;SDS011;3044;43.232;27.972;2023-04-24T09:38:34;8.70;;;3.93;;
6031;SDS011;3044;43.232;27.972;2023-04-24T09:41:02;7.20;;;4.07;;
6031;SDS011;3044;43.232;27.972;2023-04-24T09:43:32;6.90;;;3.80;;
6031;SDS011;3044;43.232;27.972;2023-04-24T09:46:03;10.10;;;4.53;;
6031;SDS011;3044;43.232;27.972;2023-04-24T09:48:32;7.13;;;4.07;;
6031;SDS011;3044;43.232;27.972;2023-04-24T09:51:00;13.50;;;5.00;;
6031;SDS011;3044;43.232;27.972;2023-04-24T09:53:28;8.47;;;4.10;;
6031;SDS011;3044;43.232;27.972;2023-04-24T09:56:00;11.63;;;5.20;;
6031;SDS011;3044;43.232;27.972;2023-04-24T09:58:29;8.77;;;4.80;;
6031;SDS011;3044;43.232;27.972;2023-04-24T10:00:56;9.33;;;3.90;;
6031;SDS011;3044;43.232;27.972;2023-04-24T10:03:24;10.77;;;5.70;;
6031;SDS011;3044;43.232;27.972;2023-04-24T10:05:52;14.60;;;5.30;;
6031;SDS011;3044;43.232;27.972;2023-04-24T10:08:20;27.27;;;5.13;;
6031;SDS011;3044;43.232;27.972;2023-04-24T10:10:48;11.17;;;4.83;;
6031;SDS011;3044;43.232;27.972;2023-04-24T10:13:17;9.77;;;4.80;;
6031;SDS011;3044;43.232;27.972;2023-04-24T10:15:44;14.30;;;5.10;;
6031;SDS011;3044;43.232;27.972;2023-04-24T10:18:14;15.00;;;4.77;;
6031;SDS011;3044;43.232;27.972;2023-04-24T10:20:42;10.77;;;4.23;;
6031;SDS011;3044;43.232;27.972;2023-04-24T10:23:11;8.10;;;4.43;;
6031;SDS011;3044;43.232;27.972;2023-04-24T10:25:39;9.35;;;4.00;;
6031;SDS011;3044;43.232;27.972;2023-04-24T10:28:06;11.17;;;4.47;;
6031;SDS011;3044;43.232;27.972;2023-04-24T10:30:36;13.53;;;4.67;;
6031;SDS011;3044;43.232;27.972;2023-04-24T10:33:04;15.40;;;4.60;;
6031;SDS011;3044;43.232;27.972;2023-04-24T10:35:31;11.80;;;5.40;;
6031;SDS011;3044;43.232;27.972;2023-04-24T10:38:02;16.92;;;5.65;;
6031;SDS011;3044;43.232;27.972;2023-04-24T10:40:33;8.37;;;5.30;;
6031;SDS011;3044;43.232;27.972;2023-04-24T10:43:02;17.90;;;5.03;;
6031;SDS011;3044;43.232;27.972;2023-04-24T10:45:31;10.17;;;5.70;;
6031;SDS011;3044;43.232;27.972;2023-04-24T10:48:01;15.33;;;5.40;;
6031;SDS011;3044;43.232;27.972;2023-04-24T10:50:29;15.33;;;4.77;;
6031;SDS011;3044;43.232;27.972;2023-04-24T10:53:12;13.10;;;5.63;;
6031;SDS011;3044;43.232;27.972;2023-04-24T10:55:40;19.53;;;5.20;;
6031;SDS011;3044;43.232;27.972;2023-04-24T10:58:09;6.73;;;4.93;;
6031;SDS011;3044;43.232;27.972;2023-04-24T11:00:37;9.93;;;5.27;;
6031;SDS011;3044;43.232;27.972;2023-04-24T11:03:06;11.73;;;6.00;;
6031;SDS011;3044;43.232;27.972;2023-04-24T11:05:49;11.07;;;5.03;;
6031;SDS011;3044;43.232;27.972;2023-04-24T11:08:25;18.23;;;5.73;;
6031;SDS011;3044;43.232;27.972;2023-04-24T11:10:55;12.13;;;5.70;;
6031;SDS011;3044;43.232;27.972;2023-04-24T11:16:31;14.27;;;5.63;;
6031;SDS011;3044;43.232;27.972;2023-04-24T11:19:02;16.07;;;6.63;;
6031;SDS011;3044;43.232;27.972;2023-04-24T11:21:32;7.40;;;5.13;;
6031;SDS011;3044;43.232;27.972;2023-04-24T11:24:23;6.80;;;5.10;;
6031;SDS011;3044;43.232;27.972;2023-04-24T11:26:51;20.67;;;6.15;;
6031;SDS011;3044;43.232;27.972;2023-04-24T11:29:20;11.87;;;5.63;;
6031;SDS011;3044;43.232;27.972;2023-04-24T11:31:47;19.57;;;5.57;;
6031;SDS011;3044;43.232;27.972;2023-04-24T11:34:18;16.10;;;4.90;;
6031;SDS011;3044;43.232;27.972;2023-04-24T11:36:45;7.83;;;5.83;;
6031;SDS011;3044;43.232;27.972;2023-04-24T11:39:13;20.47;;;5.73;;
6031;SDS011;3044;43.232;27.972;2023-04-24T11:41:41;9.03;;;5.57;;
6031;SDS011;3044;43.232;27.972;2023-04-24T11:44:09;16.13;;;4.47;;
6031;SDS011;3044;43.232;27.972;2023-04-24T11:46:36;12.15;;;5.03;;
6031;SDS011;3044;43.232;27.972;2023-04-24T11:49:05;10.53;;;5.00;;
6031;SDS011;3044;43.232;27.972;2023-04-24T11:51:33;9.00;;;5.40;;
6031;SDS011;3044;43.232;27.972;2023-04-24T11:54:01;11.93;;;6.17;;
6031;SDS011;3044;43.232;27.972;2023-04-24T11:56:28;6.37;;;4.33;;
6031;SDS011;3044;43.232;27.972;2023-04-24T11:58:55;8.57;;;5.20;;
6031;SDS011;3044;43.232;27.972;2023-04-24T12:01:23;7.50;;;4.70;;
6031;SDS011;3044;43.232;27.972;2023-04-24T12:03:50;11.23;;;5.80;;
6031;SDS011;3044;43.232;27.972;2023-04-24T12:06:18;9.80;;;5.17;;
6031;SDS011;3044;43.232;27.972;2023-04-24T12:08:47;11.60;;;5.47;;
6031;SDS011;3044;43.232;27.972;2023-04-24T12:11:15;8.73;;;5.77;;
6031;SDS011;3044;43.232;27.972;2023-04-24T12:13:46;15.02;;;5.15;;
6031;SDS011;3044;43.232;27.972;2023-04-24T12:16:13;12.17;;;5.20;;
6031;SDS011;3044;43.232;27.972;2023-04-24T12:18:43;16.63;;;4.90;;
6031;SDS011;3044;43.232;27.972;2023-04-24T12:21:15;12.80;;;5.40;;
6031;SDS011;3044;43.232;27.972;2023-04-24T12:23:43;5.43;;;4.13;;
6031;SDS011;3044;43.232;27.972;2023-04-24T12:26:12;17.40;;;5.77;;
6031;SDS011;3044;43.232;27.972;2023-04-24T12:28:46;8.77;;;5.13;;
6031;SDS011;3044;43.232;27.972;2023-04-24T12:31:15;9.97;;;4.90;;
6031;SDS011;3044;43.232;27.972;2023-04-24T12:33:43;11.93;;;5.00;;
6031;SDS011;3044;43.232;27.972;2023-04-24T12:36:10;6.13;;;4.40;;
6031;SDS011;3044;43.232;27.972;2023-04-24T12:38:43;8.00;;;5.33;;
6031;SDS011;3044;43.232;27.972;2023-04-24T12:41:13;10.20;;;5.70;;
6031;SDS011;3044;43.232;27.972;2023-04-24T12:43:50;9.03;;;5.40;;
6031;SDS011;3044;43.232;27.972;2023-04-24T12:46:18;15.80;;;6.70;;
6031;SDS011;3044;43.232;27.972;2023-04-24T12:48:46;18.73;;;5.70;;
6031;SDS011;3044;43.232;27.972;2023-04-24T12:51:13;9.17;;;5.93;;
6031;SDS011;3044;43.232;27.972;2023-04-24T12:53:40;13.40;;;5.50;;
6031;SDS011;3044;43.232;27.972;2023-04-24T12:56:07;13.97;;;5.73;;
6031;SDS011;3044;43.232;27.972;2023-04-24T12:58:36;20.03;;;5.73;;
6031;SDS011;3044;43.232;27.972;2023-04-24T13:01:03;12.60;;;5.88;;
6031;SDS011;3044;43.232;27.972;2023-04-24T13:03:30;17.80;;;6.80;;
6031;SDS011;3044;43.232;27.972;2023-04-24T13:05:57;11.50;;;5.75;;
6031;SDS011;3044;43.232;27.972;2023-04-24T13:08:25;10.77;;;5.97;;
6031;SDS011;3044;43.232;27.972;2023-04-24T13:10:52;17.47;;;6.60;;
6031;SDS011;3044;43.232;27.972;2023-04-24T13:13:19;9.60;;;6.10;;
6031;SDS011;3044;43.232;27.972;2023-04-24T13:15:47;10.40;;;6.63;;
6031;SDS011;3044;43.232;27.972;2023-04-24T13:18:14;13.27;;;6.22;;
6031;SDS011;3044;43.232;27.972;2023-04-24T13:20:42;16.80;;;5.97;;
6031;SDS011;3044;43.232;27.972;2023-04-24T13:23:09;17.42;;;6.05;;
6031;SDS011;3044;43.232;27.972;2023-04-24T13:25:36;15.70;;;6.07;;
6031;SDS011;3044;43.232;27.972;2023-04-24T13:28:04;17.13;;;6.80;;
6031;SDS011;3044;43.232;27.972;2023-04-24T13:30:31;9.30;;;5.83;;
6031;SDS011;3044;43.232;27.972;2023-04-24T13:33:00;9.33;;;6.00;;
6031;SDS011;3044;43.232;27.972;2023-04-24T13:35:27;9.63;;;5.90;;
6031;SDS011;3044;43.232;27.972;2023-04-24T13:37:54;11.27;;;5.43;;
6031;SDS011;3044;43.232;27.972;2023-04-24T13:40:21;23.00;;;6.15;;
6031;SDS011;3044;43.232;27.972;2023-04-24T13:42:48;19.30;;;5.90;;
6031;SDS011;3044;43.232;27.972;2023-04-24T13:45:16;15.20;;;6.93;;
6031;SDS011;3044;43.232;27.972;2023-04-24T13:47:43;16.90;;;5.87;;
6031;SDS011;3044;43.232;27.972;2023-04-24T13:50:12;12.80;;;5.90;;
6031;SDS011;3044;43.232;27.972;2023-04-24T13:52:39;11.87;;;5.90;;
6031;SDS011;3044;43.232;27.972;2023-04-24T13:55:06;8.17;;;5.90;;
6031;SDS011;3044;43.232;27.972;2023-04-24T13:57:34;14.60;;;5.80;;
6031;SDS011;3044;43.232;27.972;2023-04-24T14:00:02;11.17;;;6.20;;
6031;SDS011;3044;43.232;27.972;2023-04-24T14:02:30;8.13;;;4.97;;
6031;SDS011;3044;43.232;27.972;2023-04-24T14:04:58;10.90;;;6.27;;
6031;SDS011;3044;43.232;27.972;2023-04-24T14:07:27;18.20;;;6.10;;
6031;SDS011;3044;43.232;27.972;2023-04-24T14:09:55;11.17;;;5.80;;
6031;SDS011;3044;43.232;27.972;2023-04-24T14:12:22;10.00;;;7.10;;
6031;SDS011;3044;43.232;27.972;2023-04-24T14:14:49;8.68;;;5.88;;
6031;SDS011;3044;43.232;27.972;2023-04-24T14:17:17;9.93;;;4.77;;
6031;SDS011;3044;43.232;27.972;2023-04-24T14:19:44;13.50;;;5.70;;
6031;SDS011;3044;43.232;27.972;2023-04-24T14:22:11;17.90;;;5.00;;
6031;SDS011;3044;43.232;27.972;2023-04-24T14:24:40;7.40;;;4.50;;
6031;SDS011;3044;43.232;27.972;2023-04-24T14:27:07;9.73;;;4.97;;
6031;SDS011;3044;43.232;27.972;2023-04-24T14:29:34;6.57;;;5.27;;
6031;SDS011;3044;43.232;27.972;2023-04-24T14:32:01;18.50;;;5.33;;
6031;SDS011;3044;43.232;27.972;2023-04-24T14:34:28;17.45;;;4.97;;
6031;SDS011;3044;43.232;27.972;2023-04-24T14:36:56;8.90;;;4.50;;
6031;SDS011;3044;43.232;27.972;2023-04-24T14:39:24;12.50;;;4.93;;
6031;SDS011;3044;43.232;27.972;2023-04-24T14:41:52;11.27;;;5.17;;
6031;SDS011;3044;43.232;27.972;2023-04-24T14:44:20;8.70;;;5.13;;
6031;SDS011;3044;43.232;27.972;2023-04-24T14:46:48;20.17;;;5.47;;
6031;SDS011;3044;43.232;27.972;2023-04-24T14:49:15;21.08;;;4.40;;
6031;SDS011;3044;43.232;27.972;2023-04-24T14:51:42;10.30;;;4.90;;
6031;SDS011;3044;43.232;27.972;2023-04-24T14:54:09;11.03;;;4.67;;
6031;SDS011;3044;43.232;27.972;2023-04-24T14:56:36;15.50;;;5.30;;
6031;SDS011;3044;43.232;27.972;2023-04-24T14:59:07;19.53;;;5.80;;
6031;SDS011;3044;43.232;27.972;2023-04-24T15:01:34;11.77;;;5.30;;